sensor_id;sensor_type;location;lat;lon;timestamp;P1;durP1;ratioP1;P2;durP2;ratioP2
6420;SDS011;3243;50.958;7.012;2022-11-28T00:01:20;10.30;;;6.77;;
6420;SDS011;3243;50.958;7.012;2022-11-28T00:03:55;12.77;;;6.80;;
6420;SDS011;3243;50.958;7.012;2022-11-28T00:06:22;8.17;;;6.77;;
6420;SDS011;3243;50.958;7.012;2022-11-28T00:08:51;9.60;;;7.23;;
6420;SDS011;3243;50.958;7.012;2022-11-28T00:11:19;9.03;;;6.93;;
6420;SDS011;3243;50.958;7.012;2022-11-28T00:13:45;9.10;;;6.70;;
6420;SDS011;3243;50.958;7.012;2022-11-28T00:16:13;9.43;;;6.87;;
6420;SDS011;3243;50.958;7.012;2022-11-28T00:18:42;10.70;;;6.97;;
6420;SDS011;3243;50.958;7.012;2022-11-28T00:21:10;9.23;;;7.10;;
6420;SDS011;3243;50.958;7.012;2022-11-28T00:23:38;9.17;;;6.50;;
6420;SDS011;3243;50.958;7.012;2022-11-28T00:26:13;10.30;;;7.23;;
6420;SDS011;3243;50.958;7.012;2022-11-28T00:28:42;10.90;;;7.27;;
6420;SDS011;3243;50.958;7.012;2022-11-28T00:31:13;9.80;;;6.73;;
6420;SDS011;3243;50.958;7.012;2022-11-28T00:33:45;10.40;;;6.80;;
6420;SDS011;3243;50.958;7.012;2022-11-28T00:36:11;10.73;;;7.63;;
6420;SDS011;3243;50.958;7.012;2022-11-28T00:38:39;8.80;;;6.87;;
6420;SDS011;3243;50.958;7.012;2022-11-28T00:41:13;13.40;;;8.40;;
6420;SDS011;3243;50.958;7.012;2022-11-28T00:43:42;13.17;;;7.83;;
6420;SDS011;3243;50.958;7.012;2022-11-28T00:46:10;10.70;;;7.20;;
6420;SDS011;3243;50.958;7.012;2022-11-28T00:48:39;10.13;;;7.53;;
6420;SDS011;3243;50.958;7.012;2022-11-28T00:53:32;12.13;;;7.20;;
6420;SDS011;3243;50.958;7.012;2022-11-28T00:56:00;11.47;;;7.50;;
6420;SDS011;3243;50.958;7.012;2022-11-28T00:58:30;11.13;;;7.73;;
6420;SDS011;3243;50.958;7.012;2022-11-28T01:00:58;11.60;;;7.40;;
6420;SDS011;3243;50.958;7.012;2022-11-28T01:03:25;11.37;;;7.90;;
6420;SDS011;3243;50.958;7.012;2022-11-28T01:05:51;12.70;;;8.03;;
6420;SDS011;3243;50.958;7.012;2022-11-28T01:08:18;10.13;;;7.20;;
6420;SDS011;3243;50.958;7.012;2022-11-28T01:10:45;12.10;;;8.13;;
6420;SDS011;3243;50.958;7.012;2022-11-28T01:13:12;11.73;;;8.03;;
6420;SDS011;3243;50.958;7.012;2022-11-28T01:15:40;11.47;;;7.93;;
6420;SDS011;3243;50.958;7.012;2022-11-28T01:18:08;12.37;;;8.63;;
6420;SDS011;3243;50.958;7.012;2022-11-28T01:20:35;12.03;;;8.63;;
6420;SDS011;3243;50.958;7.012;2022-11-28T01:23:02;12.13;;;8.13;;
6420;SDS011;3243;50.958;7.012;2022-11-28T01:25:29;12.23;;;8.23;;
6420;SDS011;3243;50.958;7.012;2022-11-28T01:27:56;12.43;;;8.67;;
6420;SDS011;3243;50.958;7.012;2022-11-28T01:30:23;11.30;;;7.93;;
6420;SDS011;3243;50.958;7.012;2022-11-28T01:32:50;10.73;;;7.73;;
6420;SDS011;3243;50.958;7.012;2022-11-28T01:35:17;13.87;;;8.40;;
6420;SDS011;3243;50.958;7.012;2022-11-28T01:37:43;11.17;;;8.13;;
6420;SDS011;3243;50.958;7.012;2022-11-28T01:40:11;11.13;;;7.70;;
6420;SDS011;3243;50.958;7.012;2022-11-28T01:42:39;12.93;;;8.30;;
6420;SDS011;3243;50.958;7.012;2022-11-28T01:45:22;10.50;;;7.93;;
6420;SDS011;3243;50.958;7.012;2022-11-28T01:47:49;12.40;;;8.30;;
6420;SDS011;3243;50.958;7.012;2022-11-28T01:50:18;12.00;;;8.00;;
6420;SDS011;3243;50.958;7.012;2022-11-28T01:52:47;8.83;;;7.80;;
6420;SDS011;3243;50.958;7.012;2022-11-28T01:55:18;10.77;;;8.07;;
6420;SDS011;3243;50.958;7.012;2022-11-28T01:57:48;13.03;;;8.27;;
6420;SDS011;3243;50.958;7.012;2022-11-28T02:00:18;12.17;;;8.73;;
6420;SDS011;3243;50.958;7.012;2022-11-28T02:02:53;14.63;;;9.73;;
6420;SDS011;3243;50.958;7.012;2022-11-28T02:05:34;12.47;;;9.03;;
6420;SDS011;3243;50.958;7.012;2022-11-28T02:08:01;12.40;;;8.60;;
6420;SDS011;3243;50.958;7.012;2022-11-28T02:10:34;9.40;;;8.13;;
6420;SDS011;3243;50.958;7.012;2022-11-28T02:16:37;11.30;;;8.43;;
6420;SDS011;3243;50.958;7.012;2022-11-28T02:19:28;12.67;;;9.10;;
6420;SDS011;3243;50.958;7.012;2022-11-28T02:27:54;13.10;;;9.17;;
6420;SDS011;3243;50.958;7.012;2022-11-28T02:33:28;11.60;;;9.00;;
6420;SDS011;3243;50.958;7.012;2022-11-28T02:41:46;15.07;;;9.47;;
6420;SDS011;3243;50.958;7.012;2022-11-28T02:44:22;10.40;;;8.17;;
6420;SDS011;3243;50.958;7.012;2022-11-28T02:47:07;13.30;;;8.83;;
6420;SDS011;3243;50.958;7.012;2022-11-28T02:49:38;15.10;;;9.07;;
6420;SDS011;3243;50.958;7.012;2022-11-28T02:52:21;12.93;;;9.37;;
6420;SDS011;3243;50.958;7.012;2022-11-28T02:54:53;11.63;;;9.53;;
6420;SDS011;3243;50.958;7.012;2022-11-28T02:57:21;14.53;;;8.97;;
6420;SDS011;3243;50.958;7.012;2022-11-28T02:59:48;12.30;;;9.37;;
6420;SDS011;3243;50.958;7.012;2022-11-28T03:02:24;14.80;;;9.40;;
6420;SDS011;3243;50.958;7.012;2022-11-28T03:13:33;13.30;;;9.83;;
6420;SDS011;3243;50.958;7.012;2022-11-28T03:16:30;12.57;;;9.03;;
6420;SDS011;3243;50.958;7.012;2022-11-28T03:24:05;12.50;;;9.17;;
6420;SDS011;3243;50.958;7.012;2022-11-28T03:26:42;13.83;;;9.00;;
6420;SDS011;3243;50.958;7.012;2022-11-28T03:29:25;10.60;;;8.63;;
6420;SDS011;3243;50.958;7.012;2022-11-28T03:32:02;11.47;;;8.50;;
6420;SDS011;3243;50.958;7.012;2022-11-28T03:34:53;9.13;;;7.97;;
6420;SDS011;3243;50.958;7.012;2022-11-28T03:37:26;13.17;;;9.47;;
6420;SDS011;3243;50.958;7.012;2022-11-28T03:39:58;12.03;;;9.10;;
6420;SDS011;3243;50.958;7.012;2022-11-28T03:42:28;9.80;;;8.23;;
6420;SDS011;3243;50.958;7.012;2022-11-28T03:47:34;11.47;;;8.60;;
6420;SDS011;3243;50.958;7.012;2022-11-28T03:50:06;11.27;;;8.20;;
6420;SDS011;3243;50.958;7.012;2022-11-28T03:53:12;10.40;;;8.13;;
6420;SDS011;3243;50.958;7.012;2022-11-28T03:55:42;10.17;;;8.10;;
6420;SDS011;3243;50.958;7.012;2022-11-28T04:03:52;13.13;;;9.20;;
6420;SDS011;3243;50.958;7.012;2022-11-28T04:09:17;14.10;;;9.10;;
6420;SDS011;3243;50.958;7.012;2022-11-28T04:11:52;14.17;;;9.17;;
6420;SDS011;3243;50.958;7.012;2022-11-28T04:14:25;15.00;;;9.43;;
6420;SDS011;3243;50.958;7.012;2022-11-28T04:17:03;14.10;;;9.60;;
6420;SDS011;3243;50.958;7.012;2022-11-28T04:19:48;11.77;;;9.43;;
6420;SDS011;3243;50.958;7.012;2022-11-28T04:22:20;11.83;;;9.37;;
6420;SDS011;3243;50.958;7.012;2022-11-28T04:24:52;14.03;;;9.87;;
6420;SDS011;3243;50.958;7.012;2022-11-28T04:27:29;11.20;;;9.10;;
6420;SDS011;3243;50.958;7.012;2022-11-28T04:30:00;10.13;;;8.23;;
6420;SDS011;3243;50.958;7.012;2022-11-28T04:32:30;10.53;;;8.33;;
6420;SDS011;3243;50.958;7.012;2022-11-28T04:35:01;10.77;;;8.27;;
6420;SDS011;3243;50.958;7.012;2022-11-28T04:37:31;15.07;;;10.33;;
6420;SDS011;3243;50.958;7.012;2022-11-28T04:40:02;14.40;;;9.93;;
6420;SDS011;3243;50.958;7.012;2022-11-28T04:42:42;12.97;;;10.07;;
6420;SDS011;3243;50.958;7.012;2022-11-28T04:45:29;13.27;;;9.80;;
6420;SDS011;3243;50.958;7.012;2022-11-28T04:48:00;12.83;;;8.93;;
6420;SDS011;3243;50.958;7.012;2022-11-28T04:50:30;10.90;;;9.23;;
6420;SDS011;3243;50.958;7.012;2022-11-28T04:53:13;11.57;;;8.73;;
6420;SDS011;3243;50.958;7.012;2022-11-28T04:55:47;12.83;;;9.63;;
6420;SDS011;3243;50.958;7.012;2022-11-28T04:58:23;13.30;;;8.87;;
6420;SDS011;3243;50.958;7.012;2022-11-28T05:00:56;14.50;;;9.90;;
6420;SDS011;3243;50.958;7.012;2022-11-28T05:03:25;12.97;;;9.60;;
6420;SDS011;3243;50.958;7.012;2022-11-28T05:05:54;12.37;;;10.03;;
6420;SDS011;3243;50.958;7.012;2022-11-28T05:08:21;34.50;;;24.47;;
6420;SDS011;3243;50.958;7.012;2022-11-28T05:10:48;21.60;;;16.17;;
6420;SDS011;3243;50.958;7.012;2022-11-28T05:13:15;15.13;;;11.10;;
6420;SDS011;3243;50.958;7.012;2022-11-28T05:15:42;14.43;;;10.97;;
6420;SDS011;3243;50.958;7.012;2022-11-28T05:18:09;13.67;;;10.50;;
6420;SDS011;3243;50.958;7.012;2022-11-28T05:20:37;12.90;;;9.87;;
6420;SDS011;3243;50.958;7.012;2022-11-28T05:23:04;13.97;;;10.83;;
6420;SDS011;3243;50.958;7.012;2022-11-28T05:25:31;13.77;;;10.07;;
6420;SDS011;3243;50.958;7.012;2022-11-28T05:27:58;13.67;;;10.73;;
6420;SDS011;3243;50.958;7.012;2022-11-28T05:30:25;13.70;;;10.30;;
6420;SDS011;3243;50.958;7.012;2022-11-28T05:32:52;12.67;;;10.40;;
6420;SDS011;3243;50.958;7.012;2022-11-28T05:35:19;12.10;;;9.77;;
6420;SDS011;3243;50.958;7.012;2022-11-28T05:37:46;12.50;;;9.47;;
6420;SDS011;3243;50.958;7.012;2022-11-28T05:40:13;15.27;;;11.20;;
6420;SDS011;3243;50.958;7.012;2022-11-28T05:42:39;14.80;;;11.00;;
6420;SDS011;3243;50.958;7.012;2022-11-28T05:45:06;17.20;;;12.13;;
6420;SDS011;3243;50.958;7.012;2022-11-28T05:47:33;19.53;;;13.83;;
6420;SDS011;3243;50.958;7.012;2022-11-28T05:50:01;16.40;;;12.27;;
6420;SDS011;3243;50.958;7.012;2022-11-28T05:52:27;18.77;;;13.83;;
6420;SDS011;3243;50.958;7.012;2022-11-28T05:54:57;16.33;;;11.80;;
6420;SDS011;3243;50.958;7.012;2022-11-28T05:57:25;19.73;;;14.63;;
6420;SDS011;3243;50.958;7.012;2022-11-28T05:59:54;24.67;;;17.20;;
6420;SDS011;3243;50.958;7.012;2022-11-28T06:02:22;30.37;;;20.03;;
6420;SDS011;3243;50.958;7.012;2022-11-28T06:04:49;20.27;;;16.33;;
6420;SDS011;3243;50.958;7.012;2022-11-28T06:07:16;18.53;;;13.50;;
6420;SDS011;3243;50.958;7.012;2022-11-28T06:09:45;23.40;;;18.17;;
6420;SDS011;3243;50.958;7.012;2022-11-28T06:12:11;18.77;;;15.00;;
6420;SDS011;3243;50.958;7.012;2022-11-28T06:14:38;18.27;;;13.97;;
6420;SDS011;3243;50.958;7.012;2022-11-28T06:17:05;16.57;;;11.40;;
6420;SDS011;3243;50.958;7.012;2022-11-28T06:19:32;18.03;;;14.00;;
6420;SDS011;3243;50.958;7.012;2022-11-28T06:21:59;23.60;;;16.23;;
6420;SDS011;3243;50.958;7.012;2022-11-28T06:24:26;15.30;;;12.73;;
6420;SDS011;3243;50.958;7.012;2022-11-28T06:26:53;13.47;;;11.37;;
6420;SDS011;3243;50.958;7.012;2022-11-28T06:29:20;16.60;;;11.80;;
6420;SDS011;3243;50.958;7.012;2022-11-28T06:31:47;16.67;;;12.37;;
6420;SDS011;3243;50.958;7.012;2022-11-28T06:34:14;16.97;;;14.70;;
6420;SDS011;3243;50.958;7.012;2022-11-28T06:36:42;12.97;;;10.30;;
6420;SDS011;3243;50.958;7.012;2022-11-28T06:39:13;20.47;;;14.10;;
6420;SDS011;3243;50.958;7.012;2022-11-28T06:41:41;20.80;;;13.73;;
6420;SDS011;3243;50.958;7.012;2022-11-28T06:44:12;13.97;;;11.20;;
6420;SDS011;3243;50.958;7.012;2022-11-28T06:46:40;11.27;;;9.63;;
6420;SDS011;3243;50.958;7.012;2022-11-28T06:49:10;12.37;;;10.27;;
6420;SDS011;3243;50.958;7.012;2022-11-28T06:51:38;13.07;;;10.07;;
6420;SDS011;3243;50.958;7.012;2022-11-28T06:54:06;13.00;;;10.17;;
6420;SDS011;3243;50.958;7.012;2022-11-28T06:56:34;13.73;;;9.67;;
6420;SDS011;3243;50.958;7.012;2022-11-28T06:59:00;15.33;;;10.40;;
6420;SDS011;3243;50.958;7.012;2022-11-28T07:01:29;12.50;;;9.70;;
6420;SDS011;3243;50.958;7.012;2022-11-28T07:03:56;15.43;;;10.50;;
6420;SDS011;3243;50.958;7.012;2022-11-28T07:06:23;11.87;;;9.30;;
6420;SDS011;3243;50.958;7.012;2022-11-28T07:08:51;13.17;;;9.50;;
6420;SDS011;3243;50.958;7.012;2022-11-28T07:11:22;12.40;;;9.70;;
6420;SDS011;3243;50.958;7.012;2022-11-28T07:13:50;12.03;;;8.83;;
6420;SDS011;3243;50.958;7.012;2022-11-28T07:16:19;13.90;;;9.83;;
6420;SDS011;3243;50.958;7.012;2022-11-28T07:18:47;13.73;;;8.80;;
6420;SDS011;3243;50.958;7.012;2022-11-28T07:21:14;10.93;;;9.47;;
6420;SDS011;3243;50.958;7.012;2022-11-28T07:23:42;13.13;;;9.00;;
6420;SDS011;3243;50.958;7.012;2022-11-28T07:26:09;14.03;;;9.53;;
6420;SDS011;3243;50.958;7.012;2022-11-28T07:28:38;13.27;;;9.23;;
6420;SDS011;3243;50.958;7.012;2022-11-28T07:31:12;13.17;;;9.57;;
6420;SDS011;3243;50.958;7.012;2022-11-28T07:33:41;14.07;;;10.07;;
6420;SDS011;3243;50.958;7.012;2022-11-28T07:36:11;11.67;;;9.20;;
6420;SDS011;3243;50.958;7.012;2022-11-28T07:38:39;12.37;;;9.60;;
6420;SDS011;3243;50.958;7.012;2022-11-28T07:41:09;11.93;;;8.73;;
6420;SDS011;3243;50.958;7.012;2022-11-28T07:43:39;10.20;;;7.93;;
6420;SDS011;3243;50.958;7.012;2022-11-28T07:46:09;11.07;;;9.20;;
6420;SDS011;3243;50.958;7.012;2022-11-28T07:48:38;11.03;;;8.83;;
6420;SDS011;3243;50.958;7.012;2022-11-28T07:51:09;13.07;;;8.83;;
6420;SDS011;3243;50.958;7.012;2022-11-28T07:53:37;13.57;;;8.60;;
6420;SDS011;3243;50.958;7.012;2022-11-28T07:56:06;11.07;;;8.57;;
6420;SDS011;3243;50.958;7.012;2022-11-28T07:58:38;13.83;;;9.50;;
6420;SDS011;3243;50.958;7.012;2022-11-28T08:01:12;13.10;;;9.43;;
6420;SDS011;3243;50.958;7.012;2022-11-28T08:03:40;11.03;;;9.03;;
6420;SDS011;3243;50.958;7.012;2022-11-28T08:06:07;14.07;;;10.20;;
6420;SDS011;3243;50.958;7.012;2022-11-28T08:08:34;11.63;;;8.43;;
6420;SDS011;3243;50.958;7.012;2022-11-28T08:11:03;13.47;;;9.23;;
6420;SDS011;3243;50.958;7.012;2022-11-28T08:13:31;12.03;;;8.93;;
6420;SDS011;3243;50.958;7.012;2022-11-28T08:16:02;13.10;;;9.53;;
6420;SDS011;3243;50.958;7.012;2022-11-28T08:18:34;10.40;;;8.27;;
6420;SDS011;3243;50.958;7.012;2022-11-28T08:21:11;12.47;;;8.77;;
6420;SDS011;3243;50.958;7.012;2022-11-28T08:23:43;12.20;;;8.77;;
6420;SDS011;3243;50.958;7.012;2022-11-28T08:26:11;10.67;;;8.73;;
6420;SDS011;3243;50.958;7.012;2022-11-28T08:28:40;12.97;;;9.40;;
6420;SDS011;3243;50.958;7.012;2022-11-28T08:31:11;11.63;;;8.47;;
6420;SDS011;3243;50.958;7.012;2022-11-28T08:33:38;10.70;;;8.60;;
6420;SDS011;3243;50.958;7.012;2022-11-28T08:36:06;13.03;;;9.23;;
6420;SDS011;3243;50.958;7.012;2022-11-28T08:38:33;13.83;;;8.70;;
6420;SDS011;3243;50.958;7.012;2022-11-28T08:41:01;12.30;;;8.97;;
6420;SDS011;3243;50.958;7.012;2022-11-28T08:43:29;15.93;;;9.00;;
6420;SDS011;3243;50.958;7.012;2022-11-28T08:45:56;12.87;;;8.90;;
6420;SDS011;3243;50.958;7.012;2022-11-28T08:48:23;11.53;;;8.47;;
6420;SDS011;3243;50.958;7.012;2022-11-28T08:50:50;10.53;;;8.80;;
6420;SDS011;3243;50.958;7.012;2022-11-28T08:53:17;12.97;;;8.80;;
6420;SDS011;3243;50.958;7.012;2022-11-28T08:55:44;10.17;;;8.10;;
6420;SDS011;3243;50.958;7.012;2022-11-28T08:58:11;12.73;;;9.10;;
6420;SDS011;3243;50.958;7.012;2022-11-28T09:00:38;10.23;;;7.77;;
6420;SDS011;3243;50.958;7.012;2022-11-28T09:03:07;16.53;;;9.33;;
6420;SDS011;3243;50.958;7.012;2022-11-28T09:05:39;10.97;;;8.27;;
6420;SDS011;3243;50.958;7.012;2022-11-28T09:08:06;12.97;;;8.93;;
6420;SDS011;3243;50.958;7.012;2022-11-28T09:10:37;11.57;;;8.80;;
6420;SDS011;3243;50.958;7.012;2022-11-28T09:13:04;11.13;;;7.63;;
6420;SDS011;3243;50.958;7.012;2022-11-28T09:15:32;9.93;;;7.93;;
6420;SDS011;3243;50.958;7.012;2022-11-28T09:17:59;10.13;;;7.63;;
6420;SDS011;3243;50.958;7.012;2022-11-28T09:20:26;8.90;;;7.67;;
6420;SDS011;3243;50.958;7.012;2022-11-28T09:22:53;10.60;;;7.40;;
6420;SDS011;3243;50.958;7.012;2022-11-28T09:25:20;12.37;;;8.70;;
6420;SDS011;3243;50.958;7.012;2022-11-28T09:27:47;9.67;;;7.70;;
6420;SDS011;3243;50.958;7.012;2022-11-28T09:30:14;14.23;;;8.63;;
6420;SDS011;3243;50.958;7.012;2022-11-28T09:32:41;11.03;;;8.13;;
6420;SDS011;3243;50.958;7.012;2022-11-28T09:35:08;12.23;;;7.33;;
6420;SDS011;3243;50.958;7.012;2022-11-28T09:37:35;10.53;;;8.27;;
6420;SDS011;3243;50.958;7.012;2022-11-28T09:40:02;12.10;;;8.07;;
6420;SDS011;3243;50.958;7.012;2022-11-28T09:42:39;9.10;;;7.83;;
6420;SDS011;3243;50.958;7.012;2022-11-28T09:47:38;11.30;;;8.07;;
6420;SDS011;3243;50.958;7.012;2022-11-28T09:50:12;12.07;;;8.00;;
6420;SDS011;3243;50.958;7.012;2022-11-28T09:52:44;10.53;;;8.10;;
6420;SDS011;3243;50.958;7.012;2022-11-28T09:58:17;10.13;;;7.43;;
6420;SDS011;3243;50.958;7.012;2022-11-28T10:01:16;11.63;;;8.00;;
6420;SDS011;3243;50.958;7.012;2022-11-28T10:04:11;10.53;;;7.60;;
6420;SDS011;3243;50.958;7.012;2022-11-28T10:07:06;11.57;;;8.33;;
6420;SDS011;3243;50.958;7.012;2022-11-28T10:10:06;11.00;;;7.60;;
6420;SDS011;3243;50.958;7.012;2022-11-28T10:15:51;11.30;;;7.83;;
6420;SDS011;3243;50.958;7.012;2022-11-28T10:24:02;10.20;;;7.23;;
6420;SDS011;3243;50.958;7.012;2022-11-28T10:26:37;12.53;;;7.57;;
6420;SDS011;3243;50.958;7.012;2022-11-28T10:29:13;11.00;;;7.17;;
6420;SDS011;3243;50.958;7.012;2022-11-28T10:31:51;12.83;;;7.60;;
6420;SDS011;3243;50.958;7.012;2022-11-28T10:34:28;11.67;;;7.07;;
6420;SDS011;3243;50.958;7.012;2022-11-28T10:37:10;9.27;;;7.73;;
6420;SDS011;3243;50.958;7.012;2022-11-28T10:39:46;11.67;;;8.10;;
6420;SDS011;3243;50.958;7.012;2022-11-28T10:42:25;11.80;;;8.20;;
6420;SDS011;3243;50.958;7.012;2022-11-28T10:50:49;12.37;;;8.23;;
6420;SDS011;3243;50.958;7.012;2022-11-28T10:56:12;10.97;;;7.87;;
6420;SDS011;3243;50.958;7.012;2022-11-28T11:01:10;9.37;;;7.27;;
6420;SDS011;3243;50.958;7.012;2022-11-28T11:03:38;10.23;;;7.57;;
6420;SDS011;3243;50.958;7.012;2022-11-28T11:06:05;11.47;;;8.57;;
6420;SDS011;3243;50.958;7.012;2022-11-28T11:08:33;11.97;;;8.37;;
6420;SDS011;3243;50.958;7.012;2022-11-28T11:11:04;10.87;;;8.27;;
6420;SDS011;3243;50.958;7.012;2022-11-28T11:19:26;11.43;;;7.77;;
6420;SDS011;3243;50.958;7.012;2022-11-28T11:24:25;17.27;;;9.23;;
6420;SDS011;3243;50.958;7.012;2022-11-28T11:26:51;12.17;;;8.87;;
6420;SDS011;3243;50.958;7.012;2022-11-28T11:29:23;12.67;;;8.50;;
6420;SDS011;3243;50.958;7.012;2022-11-28T11:31:57;9.67;;;8.10;;
6420;SDS011;3243;50.958;7.012;2022-11-28T11:34:29;11.30;;;8.90;;
6420;SDS011;3243;50.958;7.012;2022-11-28T11:39:54;13.80;;;8.33;;
6420;SDS011;3243;50.958;7.012;2022-11-28T11:42:22;12.80;;;8.50;;
6420;SDS011;3243;50.958;7.012;2022-11-28T11:44:53;12.20;;;8.73;;
6420;SDS011;3243;50.958;7.012;2022-11-28T11:47:38;9.70;;;8.37;;
6420;SDS011;3243;50.958;7.012;2022-11-28T11:50:17;14.23;;;9.43;;
6420;SDS011;3243;50.958;7.012;2022-11-28T11:53:05;10.87;;;8.10;;
6420;SDS011;3243;50.958;7.012;2022-11-28T11:55:36;15.00;;;8.90;;
6420;SDS011;3243;50.958;7.012;2022-11-28T11:58:10;11.57;;;8.33;;
6420;SDS011;3243;50.958;7.012;2022-11-28T12:00:42;11.13;;;8.90;;
6420;SDS011;3243;50.958;7.012;2022-11-28T12:03:30;11.60;;;8.30;;
6420;SDS011;3243;50.958;7.012;2022-11-28T12:06:14;12.27;;;8.57;;
6420;SDS011;3243;50.958;7.012;2022-11-28T12:08:50;10.63;;;7.93;;
6420;SDS011;3243;50.958;7.012;2022-11-28T12:11:29;10.33;;;8.30;;
6420;SDS011;3243;50.958;7.012;2022-11-28T12:14:04;15.37;;;8.90;;
6420;SDS011;3243;50.958;7.012;2022-11-28T12:24:54;12.80;;;8.73;;
6420;SDS011;3243;50.958;7.012;2022-11-28T12:35:41;14.10;;;9.43;;
6420;SDS011;3243;50.958;7.012;2022-11-28T12:41:13;12.60;;;9.70;;
6420;SDS011;3243;50.958;7.012;2022-11-28T12:47:05;14.27;;;8.07;;
6420;SDS011;3243;50.958;7.012;2022-11-28T12:50:02;13.97;;;9.37;;
6420;SDS011;3243;50.958;7.012;2022-11-28T12:53:00;15.47;;;9.97;;
6420;SDS011;3243;50.958;7.012;2022-11-28T12:58:25;11.23;;;8.70;;
6420;SDS011;3243;50.958;7.012;2022-11-28T13:03:41;13.83;;;9.73;;
6420;SDS011;3243;50.958;7.012;2022-11-28T13:06:14;13.07;;;8.63;;
6420;SDS011;3243;50.958;7.012;2022-11-28T13:08:58;10.70;;;8.50;;
6420;SDS011;3243;50.958;7.012;2022-11-28T13:11:41;8.97;;;7.70;;
6420;SDS011;3243;50.958;7.012;2022-11-28T13:14:23;10.60;;;8.27;;
6420;SDS011;3243;50.958;7.012;2022-11-28T13:16:53;11.30;;;8.30;;
6420;SDS011;3243;50.958;7.012;2022-11-28T13:22:18;11.50;;;9.27;;
6420;SDS011;3243;50.958;7.012;2022-11-28T13:32:44;14.07;;;8.47;;
6420;SDS011;3243;50.958;7.012;2022-11-28T13:35:16;11.30;;;8.90;;
6420;SDS011;3243;50.958;7.012;2022-11-28T13:40:55;12.93;;;8.80;;
6420;SDS011;3243;50.958;7.012;2022-11-28T13:46:41;12.57;;;9.07;;
6420;SDS011;3243;50.958;7.012;2022-11-28T13:49:17;13.83;;;9.10;;
6420;SDS011;3243;50.958;7.012;2022-11-28T13:51:46;12.03;;;9.43;;
6420;SDS011;3243;50.958;7.012;2022-11-28T13:56:44;14.73;;;9.60;;
6420;SDS011;3243;50.958;7.012;2022-11-28T13:59:29;11.87;;;9.67;;
6420;SDS011;3243;50.958;7.012;2022-11-28T14:01:56;12.57;;;8.80;;
6420;SDS011;3243;50.958;7.012;2022-11-28T14:04:26;8.87;;;7.13;;
6420;SDS011;3243;50.958;7.012;2022-11-28T14:06:57;10.50;;;8.43;;
6420;SDS011;3243;50.958;7.012;2022-11-28T14:21:37;14.37;;;9.47;;
6420;SDS011;3243;50.958;7.012;2022-11-28T14:27:01;11.23;;;8.90;;
6420;SDS011;3243;50.958;7.012;2022-11-28T14:29:34;13.57;;;9.20;;
6420;SDS011;3243;50.958;7.012;2022-11-28T14:32:05;13.03;;;8.63;;
6420;SDS011;3243;50.958;7.012;2022-11-28T14:34:53;11.73;;;9.00;;
6420;SDS011;3243;50.958;7.012;2022-11-28T14:39:50;11.20;;;8.00;;
6420;SDS011;3243;50.958;7.012;2022-11-28T14:45:38;17.17;;;10.13;;
6420;SDS011;3243;50.958;7.012;2022-11-28T14:48:17;13.83;;;10.37;;
6420;SDS011;3243;50.958;7.012;2022-11-28T14:50:55;13.03;;;9.37;;
6420;SDS011;3243;50.958;7.012;2022-11-28T14:56:24;11.27;;;8.83;;
6420;SDS011;3243;50.958;7.012;2022-11-28T14:58:57;14.83;;;10.30;;
6420;SDS011;3243;50.958;7.012;2022-11-28T15:01:37;14.03;;;9.77;;
6420;SDS011;3243;50.958;7.012;2022-11-28T15:06:55;14.40;;;10.13;;
6420;SDS011;3243;50.958;7.012;2022-11-28T15:12:25;10.97;;;8.73;;
6420;SDS011;3243;50.958;7.012;2022-11-28T15:15:00;12.37;;;9.13;;
6420;SDS011;3243;50.958;7.012;2022-11-28T15:17:27;13.50;;;10.63;;
6420;SDS011;3243;50.958;7.012;2022-11-28T15:20:02;14.13;;;9.17;;
6420;SDS011;3243;50.958;7.012;2022-11-28T15:22:42;11.43;;;8.70;;
6420;SDS011;3243;50.958;7.012;2022-11-28T15:25:24;10.80;;;8.27;;
6420;SDS011;3243;50.958;7.012;2022-11-28T15:28:13;12.83;;;8.80;;
6420;SDS011;3243;50.958;7.012;2022-11-28T15:30:42;9.13;;;7.87;;
6420;SDS011;3243;50.958;7.012;2022-11-28T15:33:11;11.73;;;7.87;;
6420;SDS011;3243;50.958;7.012;2022-11-28T15:35:39;11.43;;;8.03;;
6420;SDS011;3243;50.958;7.012;2022-11-28T15:38:17;11.83;;;8.87;;
6420;SDS011;3243;50.958;7.012;2022-11-28T15:40:48;11.07;;;8.13;;
6420;SDS011;3243;50.958;7.012;2022-11-28T15:43:16;10.47;;;9.17;;
6420;SDS011;3243;50.958;7.012;2022-11-28T15:45:47;12.37;;;9.40;;
6420;SDS011;3243;50.958;7.012;2022-11-28T15:48:50;12.53;;;9.87;;
6420;SDS011;3243;50.958;7.012;2022-11-28T15:53:55;11.80;;;10.17;;
6420;SDS011;3243;50.958;7.012;2022-11-28T15:56:23;12.60;;;8.57;;
6420;SDS011;3243;50.958;7.012;2022-11-28T15:58:49;13.47;;;9.60;;
6420;SDS011;3243;50.958;7.012;2022-11-28T16:01:18;10.27;;;8.73;;
6420;SDS011;3243;50.958;7.012;2022-11-28T16:03:51;11.83;;;8.47;;
6420;SDS011;3243;50.958;7.012;2022-11-28T16:06:19;13.03;;;8.90;;
6420;SDS011;3243;50.958;7.012;2022-11-28T16:08:50;10.60;;;8.37;;
6420;SDS011;3243;50.958;7.012;2022-11-28T16:11:20;9.93;;;8.23;;
6420;SDS011;3243;50.958;7.012;2022-11-28T16:13:50;8.73;;;7.83;;
6420;SDS011;3243;50.958;7.012;2022-11-28T16:16:20;9.30;;;8.00;;
6420;SDS011;3243;50.958;7.012;2022-11-28T16:19:05;10.83;;;7.93;;
6420;SDS011;3243;50.958;7.012;2022-11-28T16:21:43;10.57;;;7.97;;
6420;SDS011;3243;50.958;7.012;2022-11-28T16:24:16;12.87;;;8.00;;
6420;SDS011;3243;50.958;7.012;2022-11-28T16:27:04;9.63;;;8.00;;
6420;SDS011;3243;50.958;7.012;2022-11-28T16:29:33;11.80;;;8.27;;
6420;SDS011;3243;50.958;7.012;2022-11-28T16:32:04;10.97;;;8.83;;
6420;SDS011;3243;50.958;7.012;2022-11-28T16:34:47;11.73;;;8.57;;
6420;SDS011;3243;50.958;7.012;2022-11-28T16:37:18;9.53;;;8.27;;
6420;SDS011;3243;50.958;7.012;2022-11-28T16:40:02;12.60;;;9.27;;
6420;SDS011;3243;50.958;7.012;2022-11-28T16:42:40;11.27;;;8.67;;
6420;SDS011;3243;50.958;7.012;2022-11-28T16:45:17;13.10;;;9.10;;
6420;SDS011;3243;50.958;7.012;2022-11-28T16:48:05;10.03;;;7.80;;
6420;SDS011;3243;50.958;7.012;2022-11-28T16:50:38;11.37;;;8.50;;
6420;SDS011;3243;50.958;7.012;2022-11-28T17:01:40;10.83;;;9.23;;
6420;SDS011;3243;50.958;7.012;2022-11-28T17:04:21;11.70;;;7.90;;
6420;SDS011;3243;50.958;7.012;2022-11-28T17:06:48;10.57;;;8.10;;
6420;SDS011;3243;50.958;7.012;2022-11-28T17:09:16;13.00;;;9.00;;
6420;SDS011;3243;50.958;7.012;2022-11-28T17:11:45;11.60;;;8.63;;
6420;SDS011;3243;50.958;7.012;2022-11-28T17:14:20;12.17;;;8.43;;
6420;SDS011;3243;50.958;7.012;2022-11-28T17:16:47;13.33;;;10.30;;
6420;SDS011;3243;50.958;7.012;2022-11-28T17:19:14;12.20;;;8.93;;
6420;SDS011;3243;50.958;7.012;2022-11-28T17:21:42;11.90;;;8.43;;
6420;SDS011;3243;50.958;7.012;2022-11-28T17:26:43;11.03;;;8.80;;
6420;SDS011;3243;50.958;7.012;2022-11-28T17:29:10;10.10;;;8.47;;
6420;SDS011;3243;50.958;7.012;2022-11-28T17:31:37;11.07;;;7.97;;
6420;SDS011;3243;50.958;7.012;2022-11-28T17:34:12;13.10;;;8.97;;
6420;SDS011;3243;50.958;7.012;2022-11-28T17:36:43;12.40;;;8.50;;
6420;SDS011;3243;50.958;7.012;2022-11-28T17:39:10;11.60;;;8.97;;
6420;SDS011;3243;50.958;7.012;2022-11-28T17:41:37;11.60;;;8.90;;
6420;SDS011;3243;50.958;7.012;2022-11-28T17:44:05;10.80;;;8.77;;
6420;SDS011;3243;50.958;7.012;2022-11-28T17:46:32;11.60;;;9.43;;
6420;SDS011;3243;50.958;7.012;2022-11-28T17:48:59;16.70;;;10.90;;
6420;SDS011;3243;50.958;7.012;2022-11-28T17:51:26;14.47;;;9.87;;
6420;SDS011;3243;50.958;7.012;2022-11-28T17:53:53;12.27;;;9.17;;
6420;SDS011;3243;50.958;7.012;2022-11-28T17:56:20;11.17;;;8.80;;
6420;SDS011;3243;50.958;7.012;2022-11-28T17:58:47;12.47;;;9.43;;
6420;SDS011;3243;50.958;7.012;2022-11-28T18:01:16;9.80;;;8.13;;
6420;SDS011;3243;50.958;7.012;2022-11-28T18:03:46;10.37;;;8.87;;
6420;SDS011;3243;50.958;7.012;2022-11-28T18:06:13;15.17;;;10.33;;
6420;SDS011;3243;50.958;7.012;2022-11-28T18:08:43;11.13;;;8.27;;
6420;SDS011;3243;50.958;7.012;2022-11-28T18:11:11;12.13;;;9.07;;
6420;SDS011;3243;50.958;7.012;2022-11-28T18:13:39;13.47;;;10.80;;
6420;SDS011;3243;50.958;7.012;2022-11-28T18:16:10;12.07;;;9.17;;
6420;SDS011;3243;50.958;7.012;2022-11-28T18:18:38;13.73;;;9.13;;
6420;SDS011;3243;50.958;7.012;2022-11-28T18:21:06;13.27;;;9.57;;